sensor_id;sensor_type;location;lat;lon;timestamp;pressure;altitude;pressure_sealevel;temperature;humidity
7474;BME280;3778;42.572;23.426;2023-01-29T00:00:18;95858.28;;;-146.70;80.93
7474;BME280;3778;42.572;23.426;2023-01-29T00:02:45;95814.50;;;-146.70;81.41
7474;BME280;3778;42.572;23.426;2023-01-29T00:05:13;95904.16;;;-146.70;81.37
7474;BME280;3778;42.572;23.426;2023-01-29T00:07:40;95839.53;;;-146.70;81.88
7474;BME280;3778;42.572;23.426;2023-01-29T00:10:08;95849.94;;;-146.70;81.74
7474;BME280;3778;42.572;23.426;2023-01-29T00:12:35;95841.59;;;-146.70;81.70
7474;BME280;3778;42.572;23.426;2023-01-29T00:15:02;95877.03;;;-146.70;81.60
7474;BME280;3778;42.572;23.426;2023-01-29T00:17:29;95866.63;;;-146.70;81.86
7474;BME280;3778;42.572;23.426;2023-01-29T00:19:56;95889.56;;;-146.70;81.87
7474;BME280;3778;42.572;23.426;2023-01-29T00:22:24;95885.38;;;-146.70;82.06
7474;BME280;3778;42.572;23.426;2023-01-29T00:24:51;95841.59;;;-146.70;81.97
7474;BME280;3778;42.572;23.426;2023-01-29T00:27:18;95841.59;;;-146.70;81.93
7474;BME280;3778;42.572;23.426;2023-01-29T00:29:44;95872.88;;;-146.70;82.01
7474;BME280;3778;42.572;23.426;2023-01-29T00:32:31;95852.03;;;-146.70;81.99
7474;BME280;3778;42.572;23.426;2023-01-29T00:34:58;95837.44;;;-146.70;81.91
7474;BME280;3778;42.572;23.426;2023-01-29T00:37:26;95906.22;;;-146.70;81.85
7474;BME280;3778;42.572;23.426;2023-01-29T00:39:53;95852.03;;;-146.70;81.80
7474;BME280;3778;42.572;23.426;2023-01-29T00:42:19;95849.94;;;-146.70;81.60
7474;BME280;3778;42.572;23.426;2023-01-29T00:45:04;95918.75;;;-146.70;81.78
7474;BME280;3778;42.572;23.426;2023-01-29T00:47:31;95835.34;;;-146.70;81.70
7474;BME280;3778;42.572;23.426;2023-01-29T00:49:59;95858.28;;;-146.70;81.40
7474;BME280;3778;42.572;23.426;2023-01-29T00:52:27;95858.28;;;-146.70;81.45
7474;BME280;3778;42.572;23.426;2023-01-29T00:54:56;95866.63;;;-146.70;81.14
7474;BME280;3778;42.572;23.426;2023-01-29T00:57:24;95908.31;;;-146.70;80.95
7474;BME280;3778;42.572;23.426;2023-01-29T00:59:51;95883.31;;;-146.70;81.04
7474;BME280;3778;42.572;23.426;2023-01-29T01:02:18;95806.16;;;-146.70;81.38
7474;BME280;3778;42.572;23.426;2023-01-29T01:05:03;95887.47;;;-146.70;81.38
7474;BME280;3778;42.572;23.426;2023-01-29T01:07:31;95881.22;;;-146.70;81.71
7474;BME280;3778;42.572;23.426;2023-01-29T01:09:58;95839.53;;;-146.70;81.93
7474;BME280;3778;42.572;23.426;2023-01-29T01:12:42;95862.47;;;-146.70;82.07
7474;BME280;3778;42.572;23.426;2023-01-29T01:15:09;95866.63;;;-146.70;82.54
7474;BME280;3778;42.572;23.426;2023-01-29T01:17:36;95870.78;;;-146.70;82.64
7474;BME280;3778;42.572;23.426;2023-01-29T01:20:03;95847.88;;;-146.70;82.71
7474;BME280;3778;42.572;23.426;2023-01-29T01:22:31;95829.09;;;-146.70;82.87
7474;BME280;3778;42.572;23.426;2023-01-29T01:24:58;95843.69;;;-146.70;82.68
7474;BME280;3778;42.572;23.426;2023-01-29T01:27:24;95887.47;;;-146.70;82.87
7474;BME280;3778;42.572;23.426;2023-01-29T01:29:51;95854.13;;;-146.70;83.01
7474;BME280;3778;42.572;23.426;2023-01-29T01:32:18;95841.59;;;-146.70;83.25
7474;BME280;3778;42.572;23.426;2023-01-29T01:34:45;95858.28;;;-146.70;83.32
7474;BME280;3778;42.572;23.426;2023-01-29T01:37:11;95914.56;;;-146.70;83.45
7474;BME280;3778;42.572;23.426;2023-01-29T01:39:39;95920.81;;;-146.70;83.49
7474;BME280;3778;42.572;23.426;2023-01-29T01:42:10;95839.53;;;-146.70;83.40
7474;BME280;3778;42.572;23.426;2023-01-29T01:44:55;95891.63;;;-146.70;83.45
7474;BME280;3778;42.572;23.426;2023-01-29T01:47:27;95883.31;;;-146.70;83.58
7474;BME280;3778;42.572;23.426;2023-01-29T01:49:58;95902.06;;;-146.70;83.53
7474;BME280;3778;42.572;23.426;2023-01-29T01:52:28;95895.81;;;-146.70;83.49
7474;BME280;3778;42.572;23.426;2023-01-29T01:54:58;95891.63;;;-146.70;83.33
7474;BME280;3778;42.572;23.426;2023-01-29T01:57:27;95827.03;;;-146.70;83.30
7474;BME280;3778;42.572;23.426;2023-01-29T01:59:58;95816.59;;;-146.70;83.37
7474;BME280;3778;42.572;23.426;2023-01-29T02:02:34;95897.91;;;-146.70;83.45
7474;BME280;3778;42.572;23.426;2023-01-29T02:05:19;95902.06;;;-146.70;83.60
7474;BME280;3778;42.572;23.426;2023-01-29T02:08:04;95858.28;;;-146.70;83.73
7474;BME280;3778;42.572;23.426;2023-01-29T02:10:49;95845.78;;;-146.70;83.78
7474;BME280;3778;42.572;23.426;2023-01-29T02:13:16;95874.97;;;-146.70;83.96
7474;BME280;3778;42.572;23.426;2023-01-29T02:15:44;95891.63;;;-146.70;84.13
7474;BME280;3778;42.572;23.426;2023-01-29T02:18:14;95864.53;;;-146.70;84.18
7474;BME280;3778;42.572;23.426;2023-01-29T02:20:44;95847.88;;;-146.70;84.30
7474;BME280;3778;42.572;23.426;2023-01-29T02:26:27;95868.72;;;-146.70;84.27
7474;BME280;3778;42.572;23.426;2023-01-29T02:29:04;95868.72;;;-146.70;84.22
7474;BME280;3778;42.572;23.426;2023-01-29T02:32:08;95933.34;;;-146.70;84.50
7474;BME280;3778;42.572;23.426;2023-01-29T02:34:46;95874.97;;;-146.70;84.75
7474;BME280;3778;42.572;23.426;2023-01-29T02:37:35;95899.97;;;-146.70;84.96
7474;BME280;3778;42.572;23.426;2023-01-29T02:40:12;95918.75;;;-146.70;85.08
7474;BME280;3778;42.572;23.426;2023-01-29T02:42:50;95883.31;;;-146.70;85.07
7474;BME280;3778;42.572;23.426;2023-01-29T02:45:22;95906.22;;;-146.70;85.14
7474;BME280;3778;42.572;23.426;2023-01-29T02:47:56;95818.69;;;-146.70;85.27
7474;BME280;3778;42.572;23.426;2023-01-29T02:50:28;95864.53;;;-146.70;85.17
7474;BME280;3778;42.572;23.426;2023-01-29T02:53:01;96022.97;;;-146.70;85.19
7474;BME280;3778;42.572;23.426;2023-01-29T02:55:33;95877.03;;;-146.70;85.01
7474;BME280;3778;42.572;23.426;2023-01-29T02:58:04;95895.81;;;-146.70;84.96
7474;BME280;3778;42.572;23.426;2023-01-29T03:00:37;95916.66;;;-146.70;85.21
7474;BME280;3778;42.572;23.426;2023-01-29T03:03:10;95908.31;;;-146.70;85.53
7474;BME280;3778;42.572;23.426;2023-01-29T03:05:44;95895.81;;;-146.70;85.96
7474;BME280;3778;42.572;23.426;2023-01-29T03:08:23;95895.81;;;-146.70;86.20
7474;BME280;3778;42.572;23.426;2023-01-29T03:11:02;95854.13;;;-146.70;86.55
7474;BME280;3778;42.572;23.426;2023-01-29T03:13:35;95891.63;;;-146.70;86.66
7474;BME280;3778;42.572;23.426;2023-01-29T03:16:07;95854.13;;;-146.70;86.63
7474;BME280;3778;42.572;23.426;2023-01-29T03:18:40;95868.72;;;-146.70;86.58
7474;BME280;3778;42.572;23.426;2023-01-29T03:21:13;95883.31;;;-146.70;86.51
7474;BME280;3778;42.572;23.426;2023-01-29T03:24:02;95929.16;;;-146.70;86.41
7474;BME280;3778;42.572;23.426;2023-01-29T03:26:47;95866.63;;;-146.70;86.44
7474;BME280;3778;42.572;23.426;2023-01-29T03:29:31;95864.53;;;-146.70;86.32
7474;BME280;3778;42.572;23.426;2023-01-29T03:32:18;95908.31;;;-146.70;86.02
7474;BME280;3778;42.572;23.426;2023-01-29T03:34:50;95816.59;;;-146.70;85.73
7474;BME280;3778;42.572;23.426;2023-01-29T03:37:22;95864.53;;;-146.70;85.55
7474;BME280;3778;42.572;23.426;2023-01-29T03:39:52;95881.22;;;-146.70;85.30
7474;BME280;3778;42.572;23.426;2023-01-29T03:42:24;95914.56;;;-146.70;85.00
7474;BME280;3778;42.572;23.426;2023-01-29T03:44:57;95833.28;;;-146.70;84.61
7474;BME280;3778;42.572;23.426;2023-01-29T03:47:33;95795.75;;;-146.70;84.54
7474;BME280;3778;42.572;23.426;2023-01-29T03:50:06;95914.56;;;-146.70;84.32
7474;BME280;3778;42.572;23.426;2023-01-29T03:52:41;95864.53;;;-146.70;84.16
7474;BME280;3778;42.572;23.426;2023-01-29T03:55:12;95845.78;;;-146.70;84.16
7474;BME280;3778;42.572;23.426;2023-01-29T03:57:44;95874.97;;;-146.70;84.25
7474;BME280;3778;42.572;23.426;2023-01-29T04:00:15;95889.56;;;-146.70;84.56
7474;BME280;3778;42.572;23.426;2023-01-29T04:02:49;95881.22;;;-146.70;84.71
7474;BME280;3778;42.572;23.426;2023-01-29T04:05:20;95891.63;;;-146.70;84.91
7474;BME280;3778;42.572;23.426;2023-01-29T04:07:50;95858.28;;;-146.70;84.96
7474;BME280;3778;42.572;23.426;2023-01-29T04:10:23;95918.75;;;-146.70;84.83
7474;BME280;3778;42.572;23.426;2023-01-29T04:12:55;95889.56;;;-146.70;84.86
7474;BME280;3778;42.572;23.426;2023-01-29T04:15:26;95883.31;;;-146.70;84.91
7474;BME280;3778;42.572;23.426;2023-01-29T04:17:55;95870.78;;;-146.70;85.07
7474;BME280;3778;42.572;23.426;2023-01-29T04:20:24;95879.13;;;-146.70;85.05
7474;BME280;3778;42.572;23.426;2023-01-29T04:22:51;95885.38;;;-146.70;84.98
7474;BME280;3778;42.572;23.426;2023-01-29T04:25:22;95841.59;;;-146.70;85.15
7474;BME280;3778;42.572;23.426;2023-01-29T04:27:59;95862.47;;;-146.70;85.26
7474;BME280;3778;42.572;23.426;2023-01-29T04:30:39;95897.91;;;-146.70;85.50
7474;BME280;3778;42.572;23.426;2023-01-29T04:33:20;95937.50;;;-146.70;85.67
7474;BME280;3778;42.572;23.426;2023-01-29T04:36:09;95950.00;;;-146.70;85.68
7474;BME280;3778;42.572;23.426;2023-01-29T04:38:50;95933.34;;;-146.70;85.80
7474;BME280;3778;42.572;23.426;2023-01-29T04:41:27;95895.81;;;-146.70;85.96
7474;BME280;3778;42.572;23.426;2023-01-29T04:43:59;95874.97;;;-146.70;85.85
7474;BME280;3778;42.572;23.426;2023-01-29T04:46:32;95914.56;;;-146.70;85.92
7474;BME280;3778;42.572;23.426;2023-01-29T04:49:16;95939.59;;;-146.70;85.90
7474;BME280;3778;42.572;23.426;2023-01-29T04:51:50;95904.16;;;-146.70;85.77
7474;BME280;3778;42.572;23.426;2023-01-29T04:54:29;95897.91;;;-146.70;85.62
7474;BME280;3778;42.572;23.426;2023-01-29T04:57:05;95877.03;;;-146.70;85.29
7474;BME280;3778;42.572;23.426;2023-01-29T04:59:38;95862.47;;;-146.70;85.29
7474;BME280;3778;42.572;23.426;2023-01-29T05:02:07;95824.94;;;-146.70;85.04
7474;BME280;3778;42.572;23.426;2023-01-29T05:04:37;95887.47;;;-146.70;84.99
7474;BME280;3778;42.572;23.426;2023-01-29T05:07:07;95835.34;;;-146.70;84.66
7474;BME280;3778;42.572;23.426;2023-01-29T05:09:37;95935.41;;;-146.70;84.49
7474;BME280;3778;42.572;23.426;2023-01-29T05:12:06;95906.22;;;-146.70;84.34
7474;BME280;3778;42.572;23.426;2023-01-29T05:14:34;95904.16;;;-146.70;84.42
7474;BME280;3778;42.572;23.426;2023-01-29T05:17:07;95914.56;;;-146.70;84.26
7474;BME280;3778;42.572;23.426;2023-01-29T05:19:35;95910.41;;;-146.70;84.11
7474;BME280;3778;42.572;23.426;2023-01-29T05:22:05;95918.75;;;-146.70;84.04
7474;BME280;3778;42.572;23.426;2023-01-29T05:24:36;95870.78;;;-146.70;83.52
7474;BME280;3778;42.572;23.426;2023-01-29T05:27:02;95874.97;;;-146.70;83.65
7474;BME280;3778;42.572;23.426;2023-01-29T05:29:47;95866.63;;;-146.70;83.54
7474;BME280;3778;42.572;23.426;2023-01-29T05:32:14;95862.47;;;-146.70;83.52
7474;BME280;3778;42.572;23.426;2023-01-29T05:34:41;95889.56;;;-146.70;83.40
7474;BME280;3778;42.572;23.426;2023-01-29T05:37:09;95893.72;;;-146.70;83.43
7474;BME280;3778;42.572;23.426;2023-01-29T05:39:36;95835.34;;;-146.70;83.70
7474;BME280;3778;42.572;23.426;2023-01-29T05:42:03;95920.81;;;-146.70;83.94
7474;BME280;3778;42.572;23.426;2023-01-29T05:44:29;95837.44;;;-146.70;83.96
7474;BME280;3778;42.572;23.426;2023-01-29T05:46:56;95870.78;;;-146.70;84.30
7474;BME280;3778;42.572;23.426;2023-01-29T05:49:23;95864.53;;;-146.70;84.22
7474;BME280;3778;42.572;23.426;2023-01-29T05:51:49;95845.78;;;-146.70;84.49
7474;BME280;3778;42.572;23.426;2023-01-29T05:54:18;95899.97;;;-146.70;84.58
7474;BME280;3778;42.572;23.426;2023-01-29T05:56:45;95835.34;;;-146.70;85.04
7474;BME280;3778;42.572;23.426;2023-01-29T05:59:12;95864.53;;;-146.70;85.30
7474;BME280;3778;42.572;23.426;2023-01-29T06:01:40;95897.91;;;-146.70;85.54
7474;BME280;3778;42.572;23.426;2023-01-29T06:04:07;95864.53;;;-146.70;85.80
7474;BME280;3778;42.572;23.426;2023-01-29T06:06:34;95899.97;;;-146.70;85.86
7474;BME280;3778;42.572;23.426;2023-01-29T06:09:00;95916.66;;;-146.70;86.07
7474;BME280;3778;42.572;23.426;2023-01-29T06:11:28;95904.16;;;-146.70;86.27
7474;BME280;3778;42.572;23.426;2023-01-29T06:13:55;95883.31;;;-146.70;86.71
7474;BME280;3778;42.572;23.426;2023-01-29T06:16:22;95937.50;;;-146.70;86.84
7474;BME280;3778;42.572;23.426;2023-01-29T06:18:49;95877.03;;;-146.70;86.90
7474;BME280;3778;42.572;23.426;2023-01-29T06:21:15;95860.38;;;-146.70;86.81
7474;BME280;3778;42.572;23.426;2023-01-29T06:23:42;95870.78;;;-146.70;86.83
7474;BME280;3778;42.572;23.426;2023-01-29T06:26:11;95879.13;;;-146.70;86.92
7474;BME280;3778;42.572;23.426;2023-01-29T06:28:40;95868.72;;;-146.70;87.04
7474;BME280;3778;42.572;23.426;2023-01-29T06:31:08;95847.88;;;-146.70;87.07
7474;BME280;3778;42.572;23.426;2023-01-29T06:33:35;95891.63;;;-146.70;87.01
7474;BME280;3778;42.572;23.426;2023-01-29T06:36:04;95906.22;;;-146.70;87.10
7474;BME280;3778;42.572;23.426;2023-01-29T06:38:31;95822.84;;;-146.70;87.26
7474;BME280;3778;42.572;23.426;2023-01-29T06:40:58;95916.66;;;-146.70;87.23
7474;BME280;3778;42.572;23.426;2023-01-29T06:43:25;95866.63;;;-146.70;87.10
7474;BME280;3778;42.572;23.426;2023-01-29T06:45:54;95937.50;;;-146.70;86.86
7474;BME280;3778;42.572;23.426;2023-01-29T06:48:21;95889.56;;;-146.70;86.89
7474;BME280;3778;42.572;23.426;2023-01-29T06:50:48;95943.75;;;-146.70;86.86
7474;BME280;3778;42.572;23.426;2023-01-29T06:53:15;95845.78;;;-146.70;86.83
7474;BME280;3778;42.572;23.426;2023-01-29T06:55:43;95885.38;;;-146.70;86.69
7474;BME280;3778;42.572;23.426;2023-01-29T06:58:11;95889.56;;;-146.70;86.66
7474;BME280;3778;42.572;23.426;2023-01-29T07:00:38;95870.78;;;-146.70;86.55
7474;BME280;3778;42.572;23.426;2023-01-29T07:03:08;95910.41;;;-146.70;86.59
7474;BME280;3778;42.572;23.426;2023-01-29T07:05:36;95845.78;;;-146.70;86.50
7474;BME280;3778;42.572;23.426;2023-01-29T07:08:02;95874.97;;;-146.70;86.66
7474;BME280;3778;42.572;23.426;2023-01-29T07:10:29;95852.03;;;-146.70;86.65
7474;BME280;3778;42.572;23.426;2023-01-29T07:12:58;95920.81;;;-146.70;86.49
7474;BME280;3778;42.572;23.426;2023-01-29T07:15:25;95881.22;;;-146.70;86.39
7474;BME280;3778;42.572;23.426;2023-01-29T07:17:57;95806.16;;;-146.70;86.42
7474;BME280;3778;42.572;23.426;2023-01-29T07:20:26;95829.09;;;-146.70;86.19
7474;BME280;3778;42.572;23.426;2023-01-29T07:22:55;95862.47;;;-146.70;85.97
7474;BME280;3778;42.572;23.426;2023-01-29T07:25:22;95854.13;;;-146.70;85.90
7474;BME280;3778;42.572;23.426;2023-01-29T07:27:49;95883.31;;;-146.70;86.13
7474;BME280;3778;42.572;23.426;2023-01-29T07:30:16;95862.47;;;-146.70;86.11
7474;BME280;3778;42.572;23.426;2023-01-29T07:32:43;95874.97;;;-146.70;85.73
7474;BME280;3778;42.572;23.426;2023-01-29T07:35:10;95858.28;;;-146.70;85.73
7474;BME280;3778;42.572;23.426;2023-01-29T07:37:38;95912.50;;;-146.70;85.62
7474;BME280;3778;42.572;23.426;2023-01-29T07:40:06;95847.88;;;-146.70;85.70
7474;BME280;3778;42.572;23.426;2023-01-29T07:42:36;95879.13;;;-146.70;85.62
7474;BME280;3778;42.572;23.426;2023-01-29T07:45:04;95829.09;;;-146.70;85.74
7474;BME280;3778;42.572;23.426;2023-01-29T07:47:31;95837.44;;;-146.70;85.65
7474;BME280;3778;42.572;23.426;2023-01-29T07:49:58;95839.53;;;-146.70;85.57
7474;BME280;3778;42.572;23.426;2023-01-29T07:52:25;95858.28;;;-146.70;85.59
7474;BME280;3778;42.572;23.426;2023-01-29T07:54:53;95918.75;;;-146.70;85.64
7474;BME280;3778;42.572;23.426;2023-01-29T07:57:19;95891.63;;;-146.70;85.39
7474;BME280;3778;42.572;23.426;2023-01-29T07:59:46;95835.34;;;-146.70;85.48
7474;BME280;3778;42.572;23.426;2023-01-29T08:02:13;95887.47;;;-146.70;85.41
7474;BME280;3778;42.572;23.426;2023-01-29T08:04:40;95858.28;;;-146.70;85.61
7474;BME280;3778;42.572;23.426;2023-01-29T08:07:06;95845.78;;;-146.70;85.63
7474;BME280;3778;42.572;23.426;2023-01-29T08:09:33;95789.50;;;-146.70;85.65
7474;BME280;3778;42.572;23.426;2023-01-29T08:12:02;95868.72;;;-146.70;85.42
7474;BME280;3778;42.572;23.426;2023-01-29T08:14:28;95799.91;;;-146.70;85.52
7474;BME280;3778;42.572;23.426;2023-01-29T08:16:55;95862.47;;;-146.70;85.45
7474;BME280;3778;42.572;23.426;2023-01-29T08:19:22;95845.78;;;-146.70;85.30
7474;BME280;3778;42.572;23.426;2023-01-29T08:21:48;95806.16;;;-146.70;85.04
7474;BME280;3778;42.572;23.426;2023-01-29T08:24:15;95862.47;;;-146.70;84.93
7474;BME280;3778;42.572;23.426;2023-01-29T08:26:42;95814.50;;;-146.70;85.01
7474;BME280;3778;42.572;23.426;2023-01-29T08:29:11;95824.94;;;-146.70;84.38
7474;BME280;3778;42.572;23.426;2023-01-29T08:31:38;95899.97;;;-146.70;84.00
7474;BME280;3778;42.572;23.426;2023-01-29T08:34:04;95824.94;;;-146.70;83.55
7474;BME280;3778;42.572;23.426;2023-01-29T08:36:31;95877.03;;;-146.70;83.29
7474;BME280;3778;42.572;23.426;2023-01-29T08:38:58;95854.13;;;-146.70;83.80
7474;BME280;3778;42.572;23.426;2023-01-29T08:41:24;95877.03;;;-146.70;83.32
7474;BME280;3778;42.572;23.426;2023-01-29T08:43:51;95829.09;;;-146.70;83.28
7474;BME280;3778;42.572;23.426;2023-01-29T08:46:19;95868.72;;;-146.70;83.42
7474;BME280;3778;42.572;23.426;2023-01-29T08:48:46;95831.19;;;-146.70;83.37
7474;BME280;3778;42.572;23.426;2023-01-29T08:51:12;95810.34;;;-146.70;82.76
7474;BME280;3778;42.572;23.426;2023-01-29T08:53:39;95852.03;;;-146.70;82.82
7474;BME280;3778;42.572;23.426;2023-01-29T08:56:06;95883.31;;;-146.70;83.04
7474;BME280;3778;42.572;23.426;2023-01-29T08:58:33;95833.28;;;-146.70;82.84
7474;BME280;3778;42.572;23.426;2023-01-29T09:01:06;95839.53;;;-146.70;82.92
7474;BME280;3778;42.572;23.426;2023-01-29T09:03:35;95820.75;;;-146.70;83.04
7474;BME280;3778;42.572;23.426;2023-01-29T09:06:02;95808.25;;;-146.70;82.59
7474;BME280;3778;42.572;23.426;2023-01-29T09:08:28;95874.97;;;-146.70;82.13
7474;BME280;3778;42.572;23.426;2023-01-29T09:10:57;95837.44;;;-146.70;82.18
7474;BME280;3778;42.572;23.426;2023-01-29T09:13:24;95858.28;;;-146.70;81.93
7474;BME280;3778;42.572;23.426;2023-01-29T09:15:51;95829.09;;;-146.70;82.11
7474;BME280;3778;42.572;23.426;2023-01-29T09:18:18;95864.53;;;-146.70;82.06
7474;BME280;3778;42.572;23.426;2023-01-29T09:20:47;95845.78;;;-146.70;82.02
7474;BME280;3778;42.572;23.426;2023-01-29T09:23:14;95843.69;;;-146.70;81.89
7474;BME280;3778;42.572;23.426;2023-01-29T09:25:41;95856.19;;;-146.70;81.56
7474;BME280;3778;42.572;23.426;2023-01-29T09:28:08;95839.53;;;-146.70;81.32
7474;BME280;3778;42.572;23.426;2023-01-29T09:30:35;95829.09;;;-146.70;81.09
7474;BME280;3778;42.572;23.426;2023-01-29T09:33:02;95881.22;;;-146.70;81.37
7474;BME280;3778;42.572;23.426;2023-01-29T09:35:29;95870.78;;;-146.70;81.78
7474;BME280;3778;42.572;23.426;2023-01-29T09:37:57;95818.69;;;-146.70;81.46
7474;BME280;3778;42.572;23.426;2023-01-29T09:40:26;95837.44;;;-146.70;81.44
7474;BME280;3778;42.572;23.426;2023-01-29T09:42:59;95760.31;;;-146.70;81.63
7474;BME280;3778;42.572;23.426;2023-01-29T09:45:28;95908.31;;;-146.70;81.75
7474;BME280;3778;42.572;23.426;2023-01-29T09:47:58;95864.53;;;-146.70;81.98
7474;BME280;3778;42.572;23.426;2023-01-29T09:50:29;95879.13;;;-146.70;81.99
7474;BME280;3778;42.572;23.426;2023-01-29T09:53:02;95885.38;;;-146.70;82.29
7474;BME280;3778;42.572;23.426;2023-01-29T09:55:32;95833.28;;;-146.70;81.83
7474;BME280;3778;42.572;23.426;2023-01-29T09:58:05;95854.13;;;-146.70;81.57
7474;BME280;3778;42.572;23.426;2023-01-29T10:00:40;95852.03;;;-146.70;81.47
7474;BME280;3778;42.572;23.426;2023-01-29T10:03:34;95802.00;;;-146.70;81.15
7474;BME280;3778;42.572;23.426;2023-01-29T10:06:18;95856.19;;;-146.70;81.20
7474;BME280;3778;42.572;23.426;2023-01-29T10:11:45;95785.31;;;-146.70;80.92
7474;BME280;3778;42.572;23.426;2023-01-29T10:14:20;95839.53;;;-146.70;80.86
7474;BME280;3778;42.572;23.426;2023-01-29T10:16:58;95793.66;;;-146.70;80.61
7474;BME280;3778;42.572;23.426;2023-01-29T10:22:40;95864.53;;;-146.70;80.69
7474;BME280;3778;42.572;23.426;2023-01-29T10:25:13;95845.78;;;-146.70;80.64
7474;BME280;3778;42.572;23.426;2023-01-29T10:27:46;95829.09;;;-146.70;80.03
7474;BME280;3778;42.572;23.426;2023-01-29T10:30:22;95847.88;;;-146.70;79.71
7474;BME280;3778;42.572;23.426;2023-01-29T10:32:53;95839.53;;;-146.70;80.26
7474;BME280;3778;42.572;23.426;2023-01-29T10:35:22;95895.81;;;-146.70;80.51
7474;BME280;3778;42.572;23.426;2023-01-29T10:37:51;95849.94;;;-146.70;80.80
7474;BME280;3778;42.572;23.426;2023-01-29T10:40:22;95814.50;;;-146.70;80.32
7474;BME280;3778;42.572;23.426;2023-01-29T10:42:53;95779.06;;;-146.70;80.57
7474;BME280;3778;42.572;23.426;2023-01-29T10:45:30;95845.78;;;-146.70;80.18
7474;BME280;3778;42.572;23.426;2023-01-29T10:48:12;95791.59;;;-146.70;80.11
7474;BME280;3778;42.572;23.426;2023-01-29T10:50:47;95804.09;;;-146.70;80.44
7474;BME280;3778;42.572;23.426;2023-01-29T10:53:29;95789.50;;;-146.70;80.78
7474;BME280;3778;42.572;23.426;2023-01-29T10:56:21;95881.22;;;-146.70;80.75
7474;BME280;3778;42.572;23.426;2023-01-29T10:58:51;95824.94;;;-146.70;80.71
7474;BME280;3778;42.572;23.426;2023-01-29T11:01:20;95827.03;;;-146.70;81.05
7474;BME280;3778;42.572;23.426;2023-01-29T11:03:55;95829.09;;;-146.70;81.02
7474;BME280;3778;42.572;23.426;2023-01-29T11:06:24;95785.31;;;-146.70;81.00
7474;BME280;3778;42.572;23.426;2023-01-29T11:08:56;95837.44;;;-146.70;81.28
7474;BME280;3778;42.572;23.426;2023-01-29T11:11:30;95864.53;;;-146.70;81.00
7474;BME280;3778;42.572;23.426;2023-01-29T11:14:02;95883.31;;;-146.70;80.89
7474;BME280;3778;42.572;23.426;2023-01-29T11:16:39;95879.13;;;-146.70;81.09
7474;BME280;3778;42.572;23.426;2023-01-29T11:19:07;95816.59;;;-146.70;81.37
7474;BME280;3778;42.572;23.426;2023-01-29T11:21:50;95810.34;;;-146.70;81.77
7474;BME280;3778;42.572;23.426;2023-01-29T11:24:17;95835.34;;;-146.70;81.26
7474;BME280;3778;42.572;23.426;2023-01-29T11:26:47;95856.19;;;-146.70;81.37
7474;BME280;3778;42.572;23.426;2023-01-29T11:29:33;95824.94;;;-146.70;81.38
7474;BME280;3778;42.572;23.426;2023-01-29T11:32:03;95837.44;;;-146.70;81.45
7474;BME280;3778;42.572;23.426;2023-01-29T11:34:31;95852.03;;;-146.70;81.15
7474;BME280;3778;42.572;23.426;2023-01-29T11:37:00;95806.16;;;-146.70;81.20
7474;BME280;3778;42.572;23.426;2023-01-29T11:39:28;95808.25;;;-146.70;80.71
7474;BME280;3778;42.572;23.426;2023-01-29T11:41:58;95870.78;;;-146.70;80.89
7474;BME280;3778;42.572;23.426;2023-01-29T11:44:32;95854.13;;;-146.70;80.32
7474;BME280;3778;42.572;23.426;2023-01-29T11:47:11;95843.69;;;-146.70;80.49
7474;BME280;3778;42.572;23.426;2023-01-29T11:49:45;95833.28;;;-146.70;80.14
7474;BME280;3778;42.572;23.426;2023-01-29T11:52:13;95808.25;;;-146.70;80.32
7474;BME280;3778;42.572;23.426;2023-01-29T11:54:44;95839.53;;;-146.70;79.78
7474;BME280;3778;42.572;23.426;2023-01-29T11:57:22;95806.16;;;-146.70;79.47
7474;BME280;3778;42.572;23.426;2023-01-29T11:59:50;95766.56;;;-146.70;79.32
7474;BME280;3778;42.572;23.426;2023-01-29T12:02:22;95824.94;;;-146.70;79.55
7474;BME280;3778;42.572;23.426;2023-01-29T12:04:53;95814.50;;;-146.70;79.65
7474;BME280;3778;42.572;23.426;2023-01-29T12:07:21;95793.66;;;-146.70;79.37
7474;BME280;3778;42.572;23.426;2023-01-29T12:09:51;95791.59;;;-146.70;79.57
7474;BME280;3778;42.572;23.426;2023-01-29T12:12:38;95812.44;;;-146.70;79.54
7474;BME280;3778;42.572;23.426;2023-01-29T12:15:18;95881.22;;;-146.70;79.63
7474;BME280;3778;42.572;23.426;2023-01-29T12:17:57;95687.34;;;-146.70;79.70
7474;BME280;3778;42.572;23.426;2023-01-29T12:20:32;95829.09;;;-146.70;79.25
7474;BME280;3778;42.572;23.426;2023-01-29T12:23:20;95789.50;;;-146.70;78.94
7474;BME280;3778;42.572;23.426;2023-01-29T12:25:56;95789.50;;;-146.70;78.61
7474;BME280;3778;42.572;23.426;2023-01-29T12:28:36;95804.09;;;-146.70;78.77
7474;BME280;3778;42.572;23.426;2023-01-29T12:31:14;95804.09;;;-146.70;79.01
7474;BME280;3778;42.572;23.426;2023-01-29T12:33:47;95820.75;;;-146.70;79.57
7474;BME280;3778;42.572;23.426;2023-01-29T12:36:21;95783.25;;;-146.70;79.60
7474;BME280;3778;42.572;23.426;2023-01-29T12:38:50;95862.47;;;-146.70;79.68
7474;BME280;3778;42.572;23.426;2023-01-29T12:41:38;95791.59;;;-146.70;80.18
7474;BME280;3778;42.572;23.426;2023-01-29T12:44:13;95854.13;;;-146.70;79.85
7474;BME280;3778;42.572;23.426;2023-01-29T12:46:45;95816.59;;;-146.70;80.38
7474;BME280;3778;42.572;23.426;2023-01-29T12:49:17;95862.47;;;-146.70;80.91
7474;BME280;3778;42.572;23.426;2023-01-29T12:51:50;95841.59;;;-146.70;81.25
7474;BME280;3778;42.572;23.426;2023-01-29T12:54:21;95839.53;;;-146.70;81.25
7474;BME280;3778;42.572;23.426;2023-01-29T12:56:55;95831.19;;;-146.70;81.50
7474;BME280;3778;42.572;23.426;2023-01-29T12:59:27;95831.19;;;-146.70;81.45
7474;BME280;3778;42.572;23.426;2023-01-29T13:01:59;95845.78;;;-146.70;81.10
7474;BME280;3778;42.572;23.426;2023-01-29T13:04:35;95849.94;;;-146.70;80.48
7474;BME280;3778;42.572;23.426;2023-01-29T13:07:10;95829.09;;;-146.70;80.37
7474;BME280;3778;42.572;23.426;2023-01-29T13:09:42;95849.94;;;-146.70;80.26
7474;BME280;3778;42.572;23.426;2023-01-29T13:12:13;95874.97;;;-146.70;80.31
7474;BME280;3778;42.572;23.426;2023-01-29T13:14:45;95824.94;;;-146.70;80.44
7474;BME280;3778;42.572;23.426;2023-01-29T13:17:18;95824.94;;;-146.70;80.72
7474;BME280;3778;42.572;23.426;2023-01-29T13:19:48;95866.63;;;-146.70;80.84